sensor_id;sensor_type;location;lat;lon;timestamp;P1;durP1;ratioP1;P2;durP2;ratioP2
5521;SDS011;2783;48.730;8.006;2023-07-02T00:01:44;5.22;;;3.05;;
5521;SDS011;2783;48.730;8.006;2023-07-02T00:04:10;8.25;;;3.35;;
5521;SDS011;2783;48.730;8.006;2023-07-02T00:06:38;7.03;;;2.97;;
5521;SDS011;2783;48.730;8.006;2023-07-02T00:09:08;4.13;;;2.40;;
5521;SDS011;2783;48.730;8.006;2023-07-02T00:11:37;4.10;;;2.53;;
5521;SDS011;2783;48.730;8.006;2023-07-02T00:14:07;4.88;;;2.88;;
5521;SDS011;2783;48.730;8.006;2023-07-02T00:16:33;4.60;;;2.10;;
5521;SDS011;2783;48.730;8.006;2023-07-02T00:18:59;4.40;;;2.30;;
5521;SDS011;2783;48.730;8.006;2023-07-02T00:21:26;4.40;;;2.72;;
5521;SDS011;2783;48.730;8.006;2023-07-02T00:23:53;5.60;;;2.63;;
5521;SDS011;2783;48.730;8.006;2023-07-02T00:26:22;5.97;;;2.95;;
5521;SDS011;2783;48.730;8.006;2023-07-02T00:28:48;4.65;;;2.97;;
5521;SDS011;2783;48.730;8.006;2023-07-02T00:31:14;5.07;;;2.75;;
5521;SDS011;2783;48.730;8.006;2023-07-02T00:33:39;5.68;;;3.13;;
5521;SDS011;2783;48.730;8.006;2023-07-02T00:36:04;4.78;;;2.85;;
5521;SDS011;2783;48.730;8.006;2023-07-02T00:38:30;4.80;;;2.45;;
5521;SDS011;2783;48.730;8.006;2023-07-02T00:40:55;5.10;;;3.03;;
5521;SDS011;2783;48.730;8.006;2023-07-02T00:43:21;5.28;;;2.85;;
5521;SDS011;2783;48.730;8.006;2023-07-02T00:45:46;5.57;;;2.75;;
5521;SDS011;2783;48.730;8.006;2023-07-02T00:48:11;4.90;;;2.95;;
5521;SDS011;2783;48.730;8.006;2023-07-02T00:50:37;5.00;;;2.72;;
5521;SDS011;2783;48.730;8.006;2023-07-02T00:53:04;4.43;;;2.60;;
5521;SDS011;2783;48.730;8.006;2023-07-02T00:55:29;6.25;;;3.58;;
5521;SDS011;2783;48.730;8.006;2023-07-02T00:57:55;4.65;;;2.45;;
5521;SDS011;2783;48.730;8.006;2023-07-02T01:00:36;4.40;;;2.55;;
5521;SDS011;2783;48.730;8.006;2023-07-02T01:03:02;5.88;;;3.00;;
5521;SDS011;2783;48.730;8.006;2023-07-02T01:05:30;5.15;;;2.65;;
5521;SDS011;2783;48.730;8.006;2023-07-02T01:08:04;5.07;;;2.17;;
5521;SDS011;2783;48.730;8.006;2023-07-02T01:10:33;4.80;;;2.55;;
5521;SDS011;2783;48.730;8.006;2023-07-02T01:13:01;4.93;;;3.03;;
5521;SDS011;2783;48.730;8.006;2023-07-02T01:15:33;6.97;;;3.30;;
5521;SDS011;2783;48.730;8.006;2023-07-02T01:18:00;4.53;;;2.65;;
5521;SDS011;2783;48.730;8.006;2023-07-02T01:20:26;5.10;;;2.58;;
5521;SDS011;2783;48.730;8.006;2023-07-02T01:22:55;5.10;;;2.50;;
5521;SDS011;2783;48.730;8.006;2023-07-02T01:25:22;5.72;;;2.60;;
5521;SDS011;2783;48.730;8.006;2023-07-02T01:27:49;6.03;;;2.60;;
5521;SDS011;2783;48.730;8.006;2023-07-02T01:30:15;5.80;;;2.80;;
5521;SDS011;2783;48.730;8.006;2023-07-02T01:32:41;4.93;;;2.78;;
5521;SDS011;2783;48.730;8.006;2023-07-02T01:35:07;6.15;;;2.78;;
5521;SDS011;2783;48.730;8.006;2023-07-02T01:37:33;6.25;;;2.85;;
5521;SDS011;2783;48.730;8.006;2023-07-02T01:40:02;6.55;;;2.40;;
5521;SDS011;2783;48.730;8.006;2023-07-02T01:42:31;5.72;;;2.70;;
5521;SDS011;2783;48.730;8.006;2023-07-02T01:44:57;8.98;;;2.83;;
5521;SDS011;2783;48.730;8.006;2023-07-02T01:47:22;6.97;;;3.20;;
5521;SDS011;2783;48.730;8.006;2023-07-02T01:49:47;5.65;;;2.63;;
5521;SDS011;2783;48.730;8.006;2023-07-02T01:52:14;7.00;;;3.17;;
5521;SDS011;2783;48.730;8.006;2023-07-02T01:54:40;5.80;;;2.67;;
5521;SDS011;2783;48.730;8.006;2023-07-02T01:57:06;6.30;;;3.20;;
5521;SDS011;2783;48.730;8.006;2023-07-02T01:59:31;4.82;;;2.83;;
5521;SDS011;2783;48.730;8.006;2023-07-02T02:01:57;10.35;;;2.97;;
5521;SDS011;2783;48.730;8.006;2023-07-02T02:04:22;5.57;;;2.50;;
5521;SDS011;2783;48.730;8.006;2023-07-02T02:06:48;5.25;;;2.85;;
5521;SDS011;2783;48.730;8.006;2023-07-02T02:09:13;5.45;;;2.63;;
5521;SDS011;2783;48.730;8.006;2023-07-02T02:11:39;6.07;;;2.75;;
5521;SDS011;2783;48.730;8.006;2023-07-02T02:14:07;9.27;;;3.03;;
5521;SDS011;2783;48.730;8.006;2023-07-02T02:16:32;6.35;;;2.95;;
5521;SDS011;2783;48.730;8.006;2023-07-02T02:19:00;9.48;;;3.10;;
5521;SDS011;2783;48.730;8.006;2023-07-02T02:21:26;6.72;;;2.63;;
5521;SDS011;2783;48.730;8.006;2023-07-02T02:23:52;6.07;;;3.30;;
5521;SDS011;2783;48.730;8.006;2023-07-02T02:26:17;8.57;;;3.15;;
5521;SDS011;2783;48.730;8.006;2023-07-02T02:28:43;5.97;;;2.70;;
5521;SDS011;2783;48.730;8.006;2023-07-02T02:31:08;6.05;;;3.30;;
5521;SDS011;2783;48.730;8.006;2023-07-02T02:33:34;12.48;;;3.63;;
5521;SDS011;2783;48.730;8.006;2023-07-02T02:36:00;9.05;;;3.83;;
5521;SDS011;2783;48.730;8.006;2023-07-02T02:38:27;6.43;;;3.22;;
5521;SDS011;2783;48.730;8.006;2023-07-02T02:40:52;8.48;;;3.10;;
5521;SDS011;2783;48.730;8.006;2023-07-02T02:43:17;7.22;;;2.97;;
5521;SDS011;2783;48.730;8.006;2023-07-02T02:45:43;6.53;;;4.82;;
5521;SDS011;2783;48.730;8.006;2023-07-02T02:48:08;13.40;;;3.40;;
5521;SDS011;2783;48.730;8.006;2023-07-02T02:50:34;9.50;;;3.17;;
5521;SDS011;2783;48.730;8.006;2023-07-02T02:52:59;7.78;;;3.40;;
5521;SDS011;2783;48.730;8.006;2023-07-02T02:55:24;7.00;;;2.80;;
5521;SDS011;2783;48.730;8.006;2023-07-02T02:57:51;6.57;;;2.95;;
5521;SDS011;2783;48.730;8.006;2023-07-02T03:00:16;6.65;;;3.03;;
5521;SDS011;2783;48.730;8.006;2023-07-02T03:02:42;7.68;;;3.70;;
5521;SDS011;2783;48.730;8.006;2023-07-02T03:05:07;5.32;;;2.78;;
5521;SDS011;2783;48.730;8.006;2023-07-02T03:07:33;12.98;;;3.08;;
5521;SDS011;2783;48.730;8.006;2023-07-02T03:09:58;20.67;;;5.35;;
5521;SDS011;2783;48.730;8.006;2023-07-02T03:12:27;8.00;;;3.90;;
5521;SDS011;2783;48.730;8.006;2023-07-02T03:14:52;12.43;;;3.35;;
5521;SDS011;2783;48.730;8.006;2023-07-02T03:17:22;6.68;;;3.20;;
5521;SDS011;2783;48.730;8.006;2023-07-02T03:19:48;8.88;;;3.35;;
5521;SDS011;2783;48.730;8.006;2023-07-02T03:22:13;6.82;;;3.28;;
5521;SDS011;2783;48.730;8.006;2023-07-02T03:24:39;7.15;;;2.63;;
5521;SDS011;2783;48.730;8.006;2023-07-02T03:27:04;6.53;;;2.90;;
5521;SDS011;2783;48.730;8.006;2023-07-02T03:29:31;8.82;;;3.30;;
5521;SDS011;2783;48.730;8.006;2023-07-02T03:32:00;5.82;;;2.72;;
5521;SDS011;2783;48.730;8.006;2023-07-02T03:34:26;6.63;;;3.20;;
5521;SDS011;2783;48.730;8.006;2023-07-02T03:36:52;5.57;;;2.67;;
5521;SDS011;2783;48.730;8.006;2023-07-02T03:39:17;9.52;;;2.90;;
5521;SDS011;2783;48.730;8.006;2023-07-02T03:41:43;6.78;;;2.75;;
5521;SDS011;2783;48.730;8.006;2023-07-02T03:44:09;7.63;;;3.63;;
5521;SDS011;2783;48.730;8.006;2023-07-02T03:46:34;8.52;;;3.05;;
5521;SDS011;2783;48.730;8.006;2023-07-02T03:49:00;6.50;;;2.90;;
5521;SDS011;2783;48.730;8.006;2023-07-02T03:51:25;7.32;;;2.83;;
5521;SDS011;2783;48.730;8.006;2023-07-02T03:53:51;9.75;;;3.78;;
5521;SDS011;2783;48.730;8.006;2023-07-02T03:56:16;9.68;;;3.05;;
5521;SDS011;2783;48.730;8.006;2023-07-02T03:58:42;7.30;;;3.78;;
5521;SDS011;2783;48.730;8.006;2023-07-02T04:01:07;6.00;;;3.83;;
5521;SDS011;2783;48.730;8.006;2023-07-02T04:03:33;7.13;;;3.00;;
5521;SDS011;2783;48.730;8.006;2023-07-02T04:05:58;11.88;;;3.20;;
5521;SDS011;2783;48.730;8.006;2023-07-02T04:08:23;7.07;;;3.00;;
5521;SDS011;2783;48.730;8.006;2023-07-02T04:10:53;6.82;;;3.00;;
5521;SDS011;2783;48.730;8.006;2023-07-02T04:13:19;7.63;;;3.00;;
5521;SDS011;2783;48.730;8.006;2023-07-02T04:15:45;5.85;;;3.03;;
5521;SDS011;2783;48.730;8.006;2023-07-02T04:18:10;4.88;;;2.58;;
5521;SDS011;2783;48.730;8.006;2023-07-02T04:20:36;7.72;;;3.42;;
5521;SDS011;2783;48.730;8.006;2023-07-02T04:23:03;7.47;;;3.65;;
5521;SDS011;2783;48.730;8.006;2023-07-02T04:25:29;9.27;;;3.35;;
5521;SDS011;2783;48.730;8.006;2023-07-02T04:27:55;7.10;;;3.22;;
5521;SDS011;2783;48.730;8.006;2023-07-02T04:30:21;8.13;;;3.17;;
5521;SDS011;2783;48.730;8.006;2023-07-02T04:32:47;9.07;;;4.78;;
5521;SDS011;2783;48.730;8.006;2023-07-02T04:35:12;7.03;;;3.38;;
5521;SDS011;2783;48.730;8.006;2023-07-02T04:37:38;12.48;;;4.75;;
5521;SDS011;2783;48.730;8.006;2023-07-02T04:40:04;7.68;;;3.22;;
5521;SDS011;2783;48.730;8.006;2023-07-02T04:42:40;8.85;;;3.13;;
5521;SDS011;2783;48.730;8.006;2023-07-02T04:45:12;7.40;;;3.90;;
5521;SDS011;2783;48.730;8.006;2023-07-02T04:47:40;7.72;;;3.33;;
5521;SDS011;2783;48.730;8.006;2023-07-02T04:50:09;7.20;;;3.03;;
5521;SDS011;2783;48.730;8.006;2023-07-02T04:52:35;6.85;;;3.53;;
5521;SDS011;2783;48.730;8.006;2023-07-02T04:55:01;5.85;;;3.00;;
5521;SDS011;2783;48.730;8.006;2023-07-02T04:57:27;7.95;;;3.90;;
5521;SDS011;2783;48.730;8.006;2023-07-02T04:59:53;5.78;;;3.25;;
5521;SDS011;2783;48.730;8.006;2023-07-02T05:02:19;8.75;;;2.90;;
5521;SDS011;2783;48.730;8.006;2023-07-02T05:04:45;6.63;;;3.20;;
5521;SDS011;2783;48.730;8.006;2023-07-02T05:07:10;7.22;;;3.30;;
5521;SDS011;2783;48.730;8.006;2023-07-02T05:09:35;6.03;;;3.20;;
5521;SDS011;2783;48.730;8.006;2023-07-02T05:12:01;6.90;;;3.17;;
5521;SDS011;2783;48.730;8.006;2023-07-02T05:14:26;9.60;;;4.15;;
5521;SDS011;2783;48.730;8.006;2023-07-02T05:16:52;7.68;;;3.85;;
5521;SDS011;2783;48.730;8.006;2023-07-02T05:19:17;8.55;;;3.70;;
5521;SDS011;2783;48.730;8.006;2023-07-02T05:21:43;11.18;;;4.15;;
5521;SDS011;2783;48.730;8.006;2023-07-02T05:24:08;8.05;;;3.65;;
5521;SDS011;2783;48.730;8.006;2023-07-02T05:26:34;6.78;;;3.38;;
5521;SDS011;2783;48.730;8.006;2023-07-02T05:29:00;8.50;;;3.83;;
5521;SDS011;2783;48.730;8.006;2023-07-02T05:31:26;9.45;;;4.05;;
5521;SDS011;2783;48.730;8.006;2023-07-02T05:33:53;12.23;;;4.40;;
5521;SDS011;2783;48.730;8.006;2023-07-02T05:36:21;10.65;;;4.93;;
5521;SDS011;2783;48.730;8.006;2023-07-02T05:38:46;10.27;;;4.53;;
5521;SDS011;2783;48.730;8.006;2023-07-02T05:41:17;11.73;;;5.05;;
5521;SDS011;2783;48.730;8.006;2023-07-02T05:43:46;10.45;;;4.65;;
5521;SDS011;2783;48.730;8.006;2023-07-02T05:46:12;13.98;;;4.78;;
5521;SDS011;2783;48.730;8.006;2023-07-02T05:48:39;11.27;;;5.40;;
5521;SDS011;2783;48.730;8.006;2023-07-02T05:51:05;13.00;;;5.40;;
5521;SDS011;2783;48.730;8.006;2023-07-02T05:53:30;14.95;;;5.25;;
5521;SDS011;2783;48.730;8.006;2023-07-02T05:55:56;11.02;;;5.38;;
5521;SDS011;2783;48.730;8.006;2023-07-02T05:58:21;13.52;;;5.38;;
5521;SDS011;2783;48.730;8.006;2023-07-02T06:00:46;14.52;;;5.03;;
5521;SDS011;2783;48.730;8.006;2023-07-02T06:03:16;13.15;;;5.20;;
5521;SDS011;2783;48.730;8.006;2023-07-02T06:05:46;12.85;;;5.55;;
5521;SDS011;2783;48.730;8.006;2023-07-02T06:08:17;14.52;;;5.85;;
5521;SDS011;2783;48.730;8.006;2023-07-02T06:10:43;11.13;;;5.47;;
5521;SDS011;2783;48.730;8.006;2023-07-02T06:13:11;13.82;;;5.35;;
5521;SDS011;2783;48.730;8.006;2023-07-02T06:15:36;11.82;;;5.60;;
5521;SDS011;2783;48.730;8.006;2023-07-02T06:18:02;14.55;;;4.80;;
5521;SDS011;2783;48.730;8.006;2023-07-02T06:20:27;15.55;;;5.82;;
5521;SDS011;2783;48.730;8.006;2023-07-02T06:22:53;11.27;;;5.20;;
5521;SDS011;2783;48.730;8.006;2023-07-02T06:25:18;12.93;;;5.30;;
5521;SDS011;2783;48.730;8.006;2023-07-02T06:27:43;16.30;;;5.18;;
5521;SDS011;2783;48.730;8.006;2023-07-02T06:30:09;16.02;;;6.40;;
5521;SDS011;2783;48.730;8.006;2023-07-02T06:32:35;11.35;;;4.97;;
5521;SDS011;2783;48.730;8.006;2023-07-02T06:35:00;14.30;;;5.93;;
5521;SDS011;2783;48.730;8.006;2023-07-02T06:37:25;19.33;;;7.95;;
5521;SDS011;2783;48.730;8.006;2023-07-02T06:39:51;10.82;;;5.25;;
5521;SDS011;2783;48.730;8.006;2023-07-02T06:42:16;12.85;;;5.72;;
5521;SDS011;2783;48.730;8.006;2023-07-02T06:44:42;9.45;;;5.60;;
5521;SDS011;2783;48.730;8.006;2023-07-02T06:47:08;16.15;;;6.13;;
5521;SDS011;2783;48.730;8.006;2023-07-02T06:49:34;14.23;;;5.57;;
5521;SDS011;2783;48.730;8.006;2023-07-02T06:51:59;15.23;;;5.93;;
5521;SDS011;2783;48.730;8.006;2023-07-02T06:54:27;12.45;;;6.05;;
5521;SDS011;2783;48.730;8.006;2023-07-02T06:56:52;16.17;;;6.90;;
5521;SDS011;2783;48.730;8.006;2023-07-02T06:59:21;13.05;;;5.85;;
5521;SDS011;2783;48.730;8.006;2023-07-02T07:01:47;14.13;;;6.38;;
5521;SDS011;2783;48.730;8.006;2023-07-02T07:04:13;15.88;;;6.80;;
5521;SDS011;2783;48.730;8.006;2023-07-02T07:06:38;14.05;;;6.97;;
5521;SDS011;2783;48.730;8.006;2023-07-02T07:09:03;17.08;;;7.10;;
5521;SDS011;2783;48.730;8.006;2023-07-02T07:11:29;13.55;;;6.28;;
5521;SDS011;2783;48.730;8.006;2023-07-02T07:13:55;15.77;;;6.57;;
5521;SDS011;2783;48.730;8.006;2023-07-02T07:16:20;16.02;;;6.60;;
5521;SDS011;2783;48.730;8.006;2023-07-02T07:18:46;15.10;;;6.95;;
5521;SDS011;2783;48.730;8.006;2023-07-02T07:21:12;16.27;;;6.82;;
5521;SDS011;2783;48.730;8.006;2023-07-02T07:23:38;17.48;;;6.88;;
5521;SDS011;2783;48.730;8.006;2023-07-02T07:26:04;16.17;;;6.90;;
5521;SDS011;2783;48.730;8.006;2023-07-02T07:28:29;20.13;;;7.68;;
5521;SDS011;2783;48.730;8.006;2023-07-02T07:30:54;16.65;;;7.82;;
5521;SDS011;2783;48.730;8.006;2023-07-02T07:33:20;14.98;;;7.22;;
5521;SDS011;2783;48.730;8.006;2023-07-02T07:35:45;20.27;;;8.23;;
5521;SDS011;2783;48.730;8.006;2023-07-02T07:38:12;18.15;;;7.57;;
5521;SDS011;2783;48.730;8.006;2023-07-02T07:40:39;15.80;;;6.85;;
5521;SDS011;2783;48.730;8.006;2023-07-02T07:43:04;18.40;;;7.80;;
5521;SDS011;2783;48.730;8.006;2023-07-02T07:45:29;21.77;;;8.77;;
5521;SDS011;2783;48.730;8.006;2023-07-02T07:47:55;16.15;;;7.93;;
5521;SDS011;2783;48.730;8.006;2023-07-02T07:50:21;18.38;;;7.47;;
5521;SDS011;2783;48.730;8.006;2023-07-02T07:52:47;14.60;;;7.22;;
5521;SDS011;2783;48.730;8.006;2023-07-02T07:55:13;17.55;;;8.00;;
5521;SDS011;2783;48.730;8.006;2023-07-02T07:57:38;16.63;;;8.00;;
5521;SDS011;2783;48.730;8.006;2023-07-02T08:00:04;17.15;;;8.52;;
5521;SDS011;2783;48.730;8.006;2023-07-02T08:02:34;19.73;;;8.80;;
5521;SDS011;2783;48.730;8.006;2023-07-02T08:05:00;18.30;;;7.32;;
5521;SDS011;2783;48.730;8.006;2023-07-02T08:07:26;19.83;;;8.02;;
5521;SDS011;2783;48.730;8.006;2023-07-02T08:09:51;19.17;;;8.48;;
5521;SDS011;2783;48.730;8.006;2023-07-02T08:12:16;16.98;;;8.27;;
5521;SDS011;2783;48.730;8.006;2023-07-02T08:14:42;17.10;;;8.05;;
5521;SDS011;2783;48.730;8.006;2023-07-02T08:17:07;16.17;;;8.02;;
5521;SDS011;2783;48.730;8.006;2023-07-02T08:19:33;15.90;;;8.18;;
5521;SDS011;2783;48.730;8.006;2023-07-02T08:21:58;20.55;;;8.40;;
5521;SDS011;2783;48.730;8.006;2023-07-02T08:24:23;16.45;;;7.75;;
5521;SDS011;2783;48.730;8.006;2023-07-02T08:26:49;15.77;;;7.88;;
5521;SDS011;2783;48.730;8.006;2023-07-02T08:29:14;16.63;;;8.15;;
5521;SDS011;2783;48.730;8.006;2023-07-02T08:31:41;14.93;;;7.68;;
5521;SDS011;2783;48.730;8.006;2023-07-02T08:34:08;15.55;;;8.25;;
5521;SDS011;2783;48.730;8.006;2023-07-02T08:36:33;16.75;;;8.63;;
5521;SDS011;2783;48.730;8.006;2023-07-02T08:38:59;17.35;;;8.23;;
5521;SDS011;2783;48.730;8.006;2023-07-02T08:41:24;14.05;;;7.38;;
5521;SDS011;2783;48.730;8.006;2023-07-02T08:43:50;16.20;;;7.65;;
5521;SDS011;2783;48.730;8.006;2023-07-02T08:46:16;17.48;;;8.95;;
5521;SDS011;2783;48.730;8.006;2023-07-02T08:48:42;18.80;;;8.85;;
5521;SDS011;2783;48.730;8.006;2023-07-02T08:51:08;18.40;;;9.23;;
5521;SDS011;2783;48.730;8.006;2023-07-02T08:53:33;19.98;;;8.70;;
5521;SDS011;2783;48.730;8.006;2023-07-02T08:56:00;20.17;;;8.50;;
5521;SDS011;2783;48.730;8.006;2023-07-02T08:58:26;16.83;;;8.57;;
5521;SDS011;2783;48.730;8.006;2023-07-02T09:01:08;17.63;;;8.13;;
5521;SDS011;2783;48.730;8.006;2023-07-02T09:03:35;17.30;;;7.97;;
5521;SDS011;2783;48.730;8.006;2023-07-02T09:06:05;16.58;;;7.97;;
5521;SDS011;2783;48.730;8.006;2023-07-02T09:08:31;17.35;;;8.15;;
5521;SDS011;2783;48.730;8.006;2023-07-02T09:13:43;16.70;;;8.18;;
5521;SDS011;2783;48.730;8.006;2023-07-02T09:18:54;15.52;;;8.05;;
5521;SDS011;2783;48.730;8.006;2023-07-02T09:21:27;16.50;;;8.30;;
5521;SDS011;2783;48.730;8.006;2023-07-02T09:24:11;18.67;;;7.97;;
5521;SDS011;2783;48.730;8.006;2023-07-02T09:26:37;16.13;;;8.18;;
5521;SDS011;2783;48.730;8.006;2023-07-02T09:29:02;17.15;;;7.65;;
5521;SDS011;2783;48.730;8.006;2023-07-02T09:31:28;16.60;;;7.63;;
5521;SDS011;2783;48.730;8.006;2023-07-02T09:34:00;18.80;;;8.00;;
5521;SDS011;2783;48.730;8.006;2023-07-02T09:38:51;17.25;;;7.90;;
5521;SDS011;2783;48.730;8.006;2023-07-02T09:41:17;19.83;;;8.43;;
5521;SDS011;2783;48.730;8.006;2023-07-02T09:43:43;18.70;;;8.02;;
5521;SDS011;2783;48.730;8.006;2023-07-02T09:46:08;16.38;;;7.90;;
5521;SDS011;2783;48.730;8.006;2023-07-02T09:48:34;15.50;;;7.55;;
5521;SDS011;2783;48.730;8.006;2023-07-02T09:51:00;20.75;;;7.78;;
5521;SDS011;2783;48.730;8.006;2023-07-02T09:53:28;20.63;;;9.02;;
5521;SDS011;2783;48.730;8.006;2023-07-02T09:55:54;18.20;;;9.38;;
5521;SDS011;2783;48.730;8.006;2023-07-02T09:58:19;18.73;;;8.75;;
5521;SDS011;2783;48.730;8.006;2023-07-02T10:00:45;15.70;;;8.35;;
5521;SDS011;2783;48.730;8.006;2023-07-02T10:03:11;22.02;;;9.07;;
5521;SDS011;2783;48.730;8.006;2023-07-02T10:05:36;15.73;;;8.13;;
5521;SDS011;2783;48.730;8.006;2023-07-02T10:08:19;20.65;;;8.82;;
5521;SDS011;2783;48.730;8.006;2023-07-02T10:10:48;16.70;;;7.93;;
5521;SDS011;2783;48.730;8.006;2023-07-02T10:13:13;16.80;;;8.43;;
5521;SDS011;2783;48.730;8.006;2023-07-02T10:15:38;18.83;;;8.32;;
5521;SDS011;2783;48.730;8.006;2023-07-02T10:18:05;20.65;;;9.00;;
5521;SDS011;2783;48.730;8.006;2023-07-02T10:20:37;16.73;;;7.55;;
5521;SDS011;2783;48.730;8.006;2023-07-02T10:23:05;19.30;;;8.60;;
5521;SDS011;2783;48.730;8.006;2023-07-02T10:25:33;19.17;;;7.95;;
5521;SDS011;2783;48.730;8.006;2023-07-02T10:28:00;18.65;;;9.07;;
5521;SDS011;2783;48.730;8.006;2023-07-02T10:30:34;21.17;;;8.88;;
5521;SDS011;2783;48.730;8.006;2023-07-02T10:35:34;17.63;;;8.10;;
5521;SDS011;2783;48.730;8.006;2023-07-02T10:38:00;21.38;;;9.15;;
5521;SDS011;2783;48.730;8.006;2023-07-02T10:40:26;15.38;;;7.20;;
5521;SDS011;2783;48.730;8.006;2023-07-02T10:42:52;18.08;;;7.97;;
5521;SDS011;2783;48.730;8.006;2023-07-02T10:45:18;18.35;;;7.32;;
5521;SDS011;2783;48.730;8.006;2023-07-02T10:47:44;16.63;;;8.05;;
5521;SDS011;2783;48.730;8.006;2023-07-02T10:50:14;14.48;;;7.35;;
5521;SDS011;2783;48.730;8.006;2023-07-02T10:52:40;19.70;;;8.27;;
5521;SDS011;2783;48.730;8.006;2023-07-02T10:55:06;16.80;;;8.18;;
5521;SDS011;2783;48.730;8.006;2023-07-02T10:57:32;15.65;;;7.88;;
5521;SDS011;2783;48.730;8.006;2023-07-02T11:00:04;17.63;;;8.18;;
5521;SDS011;2783;48.730;8.006;2023-07-02T11:02:36;19.63;;;8.20;;
5521;SDS011;2783;48.730;8.006;2023-07-02T11:05:05;14.85;;;7.85;;
5521;SDS011;2783;48.730;8.006;2023-07-02T11:07:32;15.95;;;8.10;;
5521;SDS011;2783;48.730;8.006;2023-07-02T11:09:58;17.45;;;6.97;;
5521;SDS011;2783;48.730;8.006;2023-07-02T11:12:29;16.33;;;6.80;;
5521;SDS011;2783;48.730;8.006;2023-07-02T11:14:59;15.93;;;8.00;;
5521;SDS011;2783;48.730;8.006;2023-07-02T11:17:34;17.13;;;7.50;;
5521;SDS011;2783;48.730;8.006;2023-07-02T11:19:59;16.02;;;7.65;;
5521;SDS011;2783;48.730;8.006;2023-07-02T11:22:34;14.00;;;6.50;;
5521;SDS011;2783;48.730;8.006;2023-07-02T11:25:13;14.57;;;6.95;;
5521;SDS011;2783;48.730;8.006;2023-07-02T11:27:41;16.30;;;7.57;;
5521;SDS011;2783;48.730;8.006;2023-07-02T11:30:07;16.15;;;7.10;;
5521;SDS011;2783;48.730;8.006;2023-07-02T11:35:14;15.05;;;7.00;;
5521;SDS011;2783;48.730;8.006;2023-07-02T11:37:41;13.63;;;6.47;;
5521;SDS011;2783;48.730;8.006;2023-07-02T11:40:06;17.27;;;8.63;;
5521;SDS011;2783;48.730;8.006;2023-07-02T11:42:32;15.32;;;7.28;;
5521;SDS011;2783;48.730;8.006;2023-07-02T11:44:57;18.38;;;7.75;;
5521;SDS011;2783;48.730;8.006;2023-07-02T11:47:23;14.27;;;6.50;;
5521;SDS011;2783;48.730;8.006;2023-07-02T11:49:50;12.85;;;7.05;;
5521;SDS011;2783;48.730;8.006;2023-07-02T11:52:15;12.63;;;6.20;;
5521;SDS011;2783;48.730;8.006;2023-07-02T11:54:41;15.48;;;7.07;;
5521;SDS011;2783;48.730;8.006;2023-07-02T11:57:06;14.68;;;6.90;;
5521;SDS011;2783;48.730;8.006;2023-07-02T11:59:31;14.95;;;7.18;;
5521;SDS011;2783;48.730;8.006;2023-07-02T12:01:57;14.95;;;6.78;;
5521;SDS011;2783;48.730;8.006;2023-07-02T12:04:22;15.52;;;6.95;;
5521;SDS011;2783;48.730;8.006;2023-07-02T12:06:48;14.98;;;7.45;;
5521;SDS011;2783;48.730;8.006;2023-07-02T12:09:13;11.85;;;6.53;;
5521;SDS011;2783;48.730;8.006;2023-07-02T12:11:39;15.82;;;6.47;;
5521;SDS011;2783;48.730;8.006;2023-07-02T12:14:04;11.45;;;6.07;;
5521;SDS011;2783;48.730;8.006;2023-07-02T12:16:30;13.20;;;6.60;;
5521;SDS011;2783;48.730;8.006;2023-07-02T12:18:55;13.00;;;6.78;;
5521;SDS011;2783;48.730;8.006;2023-07-02T12:21:21;14.25;;;6.45;;
5521;SDS011;2783;48.730;8.006;2023-07-02T12:23:46;13.18;;;7.20;;
5521;SDS011;2783;48.730;8.006;2023-07-02T12:26:11;11.82;;;6.25;;
5521;SDS011;2783;48.730;8.006;2023-07-02T12:28:37;14.60;;;6.68;;
5521;SDS011;2783;48.730;8.006;2023-07-02T12:31:02;15.20;;;7.70;;
5521;SDS011;2783;48.730;8.006;2023-07-02T12:33:28;12.60;;;6.43;;
5521;SDS011;2783;48.730;8.006;2023-07-02T12:35:53;12.95;;;6.32;;
5521;SDS011;2783;48.730;8.006;2023-07-02T12:38:18;11.45;;;6.35;;
5521;SDS011;2783;48.730;8.006;2023-07-02T12:40:44;14.48;;;6.80;;
5521;SDS011;2783;48.730;8.006;2023-07-02T12:43:09;12.82;;;6.32;;
5521;SDS011;2783;48.730;8.006;2023-07-02T12:45:35;13.40;;;6.78;;
5521;SDS011;2783;48.730;8.006;2023-07-02T12:48:00;12.43;;;5.95;;
5521;SDS011;2783;48.730;8.006;2023-07-02T12:50:26;13.40;;;6.53;;
5521;SDS011;2783;48.730;8.006;2023-07-02T12:52:51;13.57;;;5.85;;
5521;SDS011;2783;48.730;8.006;2023-07-02T12:55:16;12.13;;;5.78;;
5521;SDS011;2783;48.730;8.006;2023-07-02T12:57:42;13.98;;;6.45;;
5521;SDS011;2783;48.730;8.006;2023-07-02T13:00:07;13.13;;;5.68;;
5521;SDS011;2783;48.730;8.006;2023-07-02T13:02:34;13.27;;;6.22;;
5521;SDS011;2783;48.730;8.006;2023-07-02T13:04:59;13.57;;;6.55;;
5521;SDS011;2783;48.730;8.006;2023-07-02T13:07:25;15.73;;;6.68;;
5521;SDS011;2783;48.730;8.006;2023-07-02T13:09:50;13.80;;;6.43;;
5521;SDS011;2783;48.730;8.006;2023-07-02T13:12:16;12.05;;;6.20;;
5521;SDS011;2783;48.730;8.006;2023-07-02T13:14:42;14.02;;;5.93;;
5521;SDS011;2783;48.730;8.006;2023-07-02T13:17:07;11.07;;;5.70;;
5521;SDS011;2783;48.730;8.006;2023-07-02T13:19:33;10.85;;;5.50;;
5521;SDS011;2783;48.730;8.006;2023-07-02T13:22:00;12.70;;;6.13;;
5521;SDS011;2783;48.730;8.006;2023-07-02T13:24:27;12.63;;;5.57;;
5521;SDS011;2783;48.730;8.006;2023-07-02T13:26:58;14.25;;;6.05;;
5521;SDS011;2783;48.730;8.006;2023-07-02T13:29:23;13.15;;;5.97;;
5521;SDS011;2783;48.730;8.006;2023-07-02T13:31:49;13.32;;;5.70;;
5521;SDS011;2783;48.730;8.006;2023-07-02T13:34:14;11.75;;;5.78;;
5521;SDS011;2783;48.730;8.006;2023-07-02T13:36:39;16.05;;;6.18;;
5521;SDS011;2783;48.730;8.006;2023-07-02T13:39:05;14.55;;;5.70;;
5521;SDS011;2783;48.730;8.006;2023-07-02T13:41:32;12.75;;;5.53;;
5521;SDS011;2783;48.730;8.006;2023-07-02T13:43:58;13.98;;;5.88;;
5521;SDS011;2783;48.730;8.006;2023-07-02T13:46:24;11.25;;;5.50;;
5521;SDS011;2783;48.730;8.006;2023-07-02T13:48:49;14.52;;;7.25;;
5521;SDS011;2783;48.730;8.006;2023-07-02T13:51:14;12.10;;;5.63;;
5521;SDS011;2783;48.730;8.006;2023-07-02T13:53:40;13.90;;;5.93;;
5521;SDS011;2783;48.730;8.006;2023-07-02T13:56:05;13.98;;;7.20;;
5521;SDS011;2783;48.730;8.006;2023-07-02T14:01:32;13.15;;;6.45;;
5521;SDS011;2783;48.730;8.006;2023-07-02T14:03:59;13.73;;;5.55;;
5521;SDS011;2783;48.730;8.006;2023-07-02T14:06:25;14.57;;;5.93;;
5521;SDS011;2783;48.730;8.006;2023-07-02T14:08:50;17.58;;;6.90;;
5521;SDS011;2783;48.730;8.006;2023-07-02T14:11:15;13.40;;;6.25;;
5521;SDS011;2783;48.730;8.006;2023-07-02T14:13:41;14.00;;;6.75;;
5521;SDS011;2783;48.730;8.006;2023-07-02T14:16:07;14.25;;;5.80;;
5521;SDS011;2783;48.730;8.006;2023-07-02T14:18:32;12.90;;;5.90;;
5521;SDS011;2783;48.730;8.006;2023-07-02T14:20:57;14.50;;;6.85;;
5521;SDS011;2783;48.730;8.006;2023-07-02T14:23:23;13.45;;;6.22;;
5521;SDS011;2783;48.730;8.006;2023-07-02T14:25:48;11.23;;;6.20;;
5521;SDS011;2783;48.730;8.006;2023-07-02T14:28:13;14.50;;;7.05;;
5521;SDS011;2783;48.730;8.006;2023-07-02T14:30:39;14.95;;;7.22;;
5521;SDS011;2783;48.730;8.006;2023-07-02T14:33:05;15.00;;;6.50;;
5521;SDS011;2783;48.730;8.006;2023-07-02T14:35:31;16.48;;;6.93;;
5521;SDS011;2783;48.730;8.006;2023-07-02T14:37:57;18.73;;;6.97;;
5521;SDS011;2783;48.730;8.006;2023-07-02T14:40:22;12.98;;;6.28;;
5521;SDS011;2783;48.730;8.006;2023-07-02T14:42:48;15.40;;;6.50;;
5521;SDS011;2783;48.730;8.006;2023-07-02T14:45:14;13.93;;;6.15;;
5521;SDS011;2783;48.730;8.006;2023-07-02T14:47:39;16.02;;;7.43;;
5521;SDS011;2783;48.730;8.006;2023-07-02T14:50:05;14.55;;;6.97;;
5521;SDS011;2783;48.730;8.006;2023-07-02T14:52:30;13.63;;;5.97;;
5521;SDS011;2783;48.730;8.006;2023-07-02T14:54:56;15.05;;;6.53;;
5521;SDS011;2783;48.730;8.006;2023-07-02T14:57:24;16.90;;;7.55;;
5521;SDS011;2783;48.730;8.006;2023-07-02T14:59:50;13.57;;;6.85;;
5521;SDS011;2783;48.730;8.006;2023-07-02T15:02:16;16.80;;;6.72;;
5521;SDS011;2783;48.730;8.006;2023-07-02T15:04:42;14.15;;;6.28;;
5521;SDS011;2783;48.730;8.006;2023-07-02T15:07:07;13.50;;;6.97;;
5521;SDS011;2783;48.730;8.006;2023-07-02T15:09:33;13.57;;;6.97;;
5521;SDS011;2783;48.730;8.006;2023-07-02T15:11:58;14.60;;;6.82;;
5521;SDS011;2783;48.730;8.006;2023-07-02T15:14:24;15.45;;;6.22;;
5521;SDS011;2783;48.730;8.006;2023-07-02T15:16:49;15.02;;;6.75;;